sensor_id;sensor_type;location;lat;lon;timestamp;P1;durP1;ratioP1;P2;durP2;ratioP2
13319;SDS011;59599;47.608;12.190;2022-09-17T00:01:29;3.70;;;1.80;;
13319;SDS011;59599;47.608;12.190;2022-09-17T00:03:57;2.70;;;1.63;;
13319;SDS011;59599;47.608;12.190;2022-09-17T00:06:28;3.63;;;1.70;;
13319;SDS011;59599;47.608;12.190;2022-09-17T00:08:54;3.13;;;1.90;;
13319;SDS011;59599;47.608;12.190;2022-09-17T00:11:25;2.53;;;1.80;;
13319;SDS011;59599;47.608;12.190;2022-09-17T00:13:51;3.73;;;1.60;;
13319;SDS011;59599;47.608;12.190;2022-09-17T00:16:25;3.77;;;1.60;;
13319;SDS011;59599;47.608;12.190;2022-09-17T00:18:51;5.33;;;1.80;;
13319;SDS011;59599;47.608;12.190;2022-09-17T00:21:18;3.20;;;1.80;;
13319;SDS011;59599;47.608;12.190;2022-09-17T00:23:44;2.40;;;1.70;;
13319;SDS011;59599;47.608;12.190;2022-09-17T00:26:10;2.63;;;1.70;;
13319;SDS011;59599;47.608;12.190;2022-09-17T00:28:36;3.17;;;2.20;;
13319;SDS011;59599;47.608;12.190;2022-09-17T00:31:06;4.00;;;2.10;;
13319;SDS011;59599;47.608;12.190;2022-09-17T00:33:33;2.63;;;1.80;;
13319;SDS011;59599;47.608;12.190;2022-09-17T00:35:59;4.67;;;1.73;;
13319;SDS011;59599;47.608;12.190;2022-09-17T00:38:26;3.63;;;1.77;;
13319;SDS011;59599;47.608;12.190;2022-09-17T00:40:52;2.73;;;1.80;;
13319;SDS011;59599;47.608;12.190;2022-09-17T00:46:08;5.53;;;1.70;;
13319;SDS011;59599;47.608;12.190;2022-09-17T00:48:36;2.70;;;1.57;;
13319;SDS011;59599;47.608;12.190;2022-09-17T00:51:02;5.20;;;1.70;;
13319;SDS011;59599;47.608;12.190;2022-09-17T00:53:30;1.83;;;1.57;;
13319;SDS011;59599;47.608;12.190;2022-09-17T00:55:58;6.33;;;1.83;;
13319;SDS011;59599;47.608;12.190;2022-09-17T00:58:26;2.07;;;1.50;;
13319;SDS011;59599;47.608;12.190;2022-09-17T01:00:53;2.10;;;1.90;;
13319;SDS011;59599;47.608;12.190;2022-09-17T01:03:18;2.57;;;1.90;;
13319;SDS011;59599;47.608;12.190;2022-09-17T01:05:46;4.60;;;1.87;;
13319;SDS011;59599;47.608;12.190;2022-09-17T01:08:16;4.80;;;2.00;;
13319;SDS011;59599;47.608;12.190;2022-09-17T01:18:14;2.87;;;1.87;;
13319;SDS011;59599;47.608;12.190;2022-09-17T01:21:00;3.23;;;2.20;;
13319;SDS011;59599;47.608;12.190;2022-09-17T01:23:33;2.60;;;2.17;;
13319;SDS011;59599;47.608;12.190;2022-09-17T01:29:31;2.40;;;2.00;;
13319;SDS011;59599;47.608;12.190;2022-09-17T01:32:15;2.73;;;2.10;;
13319;SDS011;59599;47.608;12.190;2022-09-17T01:35:08;4.13;;;2.37;;
13319;SDS011;59599;47.608;12.190;2022-09-17T01:37:46;2.90;;;1.97;;
13319;SDS011;59599;47.608;12.190;2022-09-17T01:40:20;4.40;;;2.50;;
13319;SDS011;59599;47.608;12.190;2022-09-17T01:42:53;3.73;;;2.37;;
13319;SDS011;59599;47.608;12.190;2022-09-17T01:45:24;5.03;;;2.27;;
13319;SDS011;59599;47.608;12.190;2022-09-17T01:48:01;1.77;;;1.67;;
13319;SDS011;59599;47.608;12.190;2022-09-17T01:50:31;2.63;;;2.07;;
13319;SDS011;59599;47.608;12.190;2022-09-17T01:53:01;1.90;;;1.70;;
13319;SDS011;59599;47.608;12.190;2022-09-17T01:55:29;3.50;;;1.60;;
13319;SDS011;59599;47.608;12.190;2022-09-17T01:58:00;2.63;;;1.83;;
13319;SDS011;59599;47.608;12.190;2022-09-17T02:00:27;3.17;;;1.73;;
13319;SDS011;59599;47.608;12.190;2022-09-17T02:02:56;6.93;;;2.10;;
13319;SDS011;59599;47.608;12.190;2022-09-17T02:05:33;6.10;;;2.10;;
13319;SDS011;59599;47.608;12.190;2022-09-17T02:08:04;2.10;;;1.90;;
13319;SDS011;59599;47.608;12.190;2022-09-17T02:10:35;4.17;;;1.87;;
13319;SDS011;59599;47.608;12.190;2022-09-17T02:13:05;4.13;;;2.00;;
13319;SDS011;59599;47.608;12.190;2022-09-17T02:15:37;1.80;;;1.50;;
13319;SDS011;59599;47.608;12.190;2022-09-17T02:20:42;4.17;;;1.33;;
13319;SDS011;59599;47.608;12.190;2022-09-17T02:23:12;1.67;;;1.30;;
13319;SDS011;59599;47.608;12.190;2022-09-17T02:25:46;2.13;;;1.33;;
13319;SDS011;59599;47.608;12.190;2022-09-17T02:28:15;1.20;;;1.10;;
13319;SDS011;59599;47.608;12.190;2022-09-17T02:30:43;2.63;;;1.33;;
13319;SDS011;59599;47.608;12.190;2022-09-17T02:33:10;1.43;;;1.20;;
13319;SDS011;59599;47.608;12.190;2022-09-17T02:35:36;2.53;;;1.17;;
13319;SDS011;59599;47.608;12.190;2022-09-17T02:38:03;3.47;;;1.30;;
13319;SDS011;59599;47.608;12.190;2022-09-17T02:40:30;5.53;;;1.30;;
13319;SDS011;59599;47.608;12.190;2022-09-17T02:43:08;3.07;;;1.50;;
13319;SDS011;59599;47.608;12.190;2022-09-17T02:56:06;1.87;;;1.33;;
13319;SDS011;59599;47.608;12.190;2022-09-17T02:58:39;3.27;;;1.47;;
13319;SDS011;59599;47.608;12.190;2022-09-17T03:03:51;2.40;;;1.30;;
13319;SDS011;59599;47.608;12.190;2022-09-17T03:06:20;2.53;;;1.40;;
13319;SDS011;59599;47.608;12.190;2022-09-17T03:08:47;1.83;;;1.00;;
13319;SDS011;59599;47.608;12.190;2022-09-17T03:11:13;1.07;;;0.90;;
13319;SDS011;59599;47.608;12.190;2022-09-17T03:13:39;0.90;;;0.90;;
13319;SDS011;59599;47.608;12.190;2022-09-17T03:16:05;1.20;;;0.97;;
13319;SDS011;59599;47.608;12.190;2022-09-17T03:18:31;3.97;;;1.20;;
13319;SDS011;59599;47.608;12.190;2022-09-17T03:20:57;1.83;;;1.23;;
13319;SDS011;59599;47.608;12.190;2022-09-17T03:23:23;1.27;;;1.10;;
13319;SDS011;59599;47.608;12.190;2022-09-17T03:25:51;1.90;;;1.20;;
13319;SDS011;59599;47.608;12.190;2022-09-17T03:28:17;1.90;;;0.77;;
13319;SDS011;59599;47.608;12.190;2022-09-17T03:30:43;0.90;;;0.90;;
13319;SDS011;59599;47.608;12.190;2022-09-17T03:33:09;2.57;;;1.30;;
13319;SDS011;59599;47.608;12.190;2022-09-17T03:35:35;1.13;;;1.00;;
13319;SDS011;59599;47.608;12.190;2022-09-17T03:38:01;0.93;;;0.90;;
13319;SDS011;59599;47.608;12.190;2022-09-17T03:40:27;1.50;;;1.00;;
13319;SDS011;59599;47.608;12.190;2022-09-17T03:42:53;2.43;;;0.90;;
13319;SDS011;59599;47.608;12.190;2022-09-17T03:45:19;0.80;;;0.80;;
13319;SDS011;59599;47.608;12.190;2022-09-17T03:47:45;2.60;;;0.90;;
13319;SDS011;59599;47.608;12.190;2022-09-17T03:50:11;1.30;;;0.70;;
13319;SDS011;59599;47.608;12.190;2022-09-17T03:52:37;3.13;;;1.00;;
13319;SDS011;59599;47.608;12.190;2022-09-17T03:55:03;2.40;;;0.83;;
13319;SDS011;59599;47.608;12.190;2022-09-17T03:57:29;1.20;;;0.80;;
13319;SDS011;59599;47.608;12.190;2022-09-17T03:59:55;2.47;;;1.10;;
13319;SDS011;59599;47.608;12.190;2022-09-17T04:02:21;1.27;;;0.90;;
13319;SDS011;59599;47.608;12.190;2022-09-17T04:04:47;1.27;;;0.80;;
13319;SDS011;59599;47.608;12.190;2022-09-17T04:07:13;0.87;;;0.80;;
13319;SDS011;59599;47.608;12.190;2022-09-17T04:09:39;1.30;;;0.87;;
13319;SDS011;59599;47.608;12.190;2022-09-17T04:12:04;0.70;;;0.60;;
13319;SDS011;59599;47.608;12.190;2022-09-17T04:14:30;0.80;;;0.80;;
13319;SDS011;59599;47.608;12.190;2022-09-17T04:16:57;4.10;;;0.83;;
13319;SDS011;59599;47.608;12.190;2022-09-17T04:19:22;1.60;;;0.80;;
13319;SDS011;59599;47.608;12.190;2022-09-17T04:21:48;1.80;;;0.63;;
13319;SDS011;59599;47.608;12.190;2022-09-17T04:24:14;2.53;;;0.77;;
13319;SDS011;59599;47.608;12.190;2022-09-17T04:26:40;0.70;;;0.70;;
13319;SDS011;59599;47.608;12.190;2022-09-17T04:29:06;0.50;;;0.50;;
13319;SDS011;59599;47.608;12.190;2022-09-17T04:31:33;0.60;;;0.60;;
13319;SDS011;59599;47.608;12.190;2022-09-17T04:33:59;2.03;;;0.73;;
13319;SDS011;59599;47.608;12.190;2022-09-17T04:36:25;2.63;;;0.40;;
13319;SDS011;59599;47.608;12.190;2022-09-17T04:38:50;1.03;;;0.60;;
13319;SDS011;59599;47.608;12.190;2022-09-17T04:41:17;0.90;;;0.70;;
13319;SDS011;59599;47.608;12.190;2022-09-17T04:43:43;0.83;;;0.63;;
13319;SDS011;59599;47.608;12.190;2022-09-17T04:46:09;0.60;;;0.60;;
13319;SDS011;59599;47.608;12.190;2022-09-17T04:48:35;0.57;;;0.57;;
13319;SDS011;59599;47.608;12.190;2022-09-17T04:51:01;1.17;;;0.67;;
13319;SDS011;59599;47.608;12.190;2022-09-17T04:53:26;0.80;;;0.77;;
13319;SDS011;59599;47.608;12.190;2022-09-17T04:55:52;0.60;;;0.60;;
13319;SDS011;59599;47.608;12.190;2022-09-17T04:58:18;1.13;;;0.80;;
13319;SDS011;59599;47.608;12.190;2022-09-17T05:00:44;1.43;;;0.80;;
13319;SDS011;59599;47.608;12.190;2022-09-17T05:03:09;5.80;;;1.00;;
13319;SDS011;59599;47.608;12.190;2022-09-17T05:05:35;0.77;;;0.57;;
13319;SDS011;59599;47.608;12.190;2022-09-17T05:08:01;1.83;;;0.60;;
13319;SDS011;59599;47.608;12.190;2022-09-17T05:10:28;0.73;;;0.73;;
13319;SDS011;59599;47.608;12.190;2022-09-17T05:12:54;0.50;;;0.50;;
13319;SDS011;59599;47.608;12.190;2022-09-17T05:15:21;0.27;;;0.27;;
13319;SDS011;59599;47.608;12.190;2022-09-17T05:17:47;0.87;;;0.63;;
13319;SDS011;59599;47.608;12.190;2022-09-17T05:20:14;2.00;;;0.80;;
13319;SDS011;59599;47.608;12.190;2022-09-17T05:22:44;3.50;;;1.10;;
13319;SDS011;59599;47.608;12.190;2022-09-17T05:25:10;2.20;;;0.77;;
13319;SDS011;59599;47.608;12.190;2022-09-17T05:27:37;0.50;;;0.50;;
13319;SDS011;59599;47.608;12.190;2022-09-17T05:30:03;0.60;;;0.60;;
13319;SDS011;59599;47.608;12.190;2022-09-17T05:32:29;1.03;;;0.53;;
13319;SDS011;59599;47.608;12.190;2022-09-17T05:34:55;2.17;;;0.70;;
13319;SDS011;59599;47.608;12.190;2022-09-17T05:37:20;0.73;;;0.37;;
13319;SDS011;59599;47.608;12.190;2022-09-17T05:39:46;2.20;;;0.60;;
13319;SDS011;59599;47.608;12.190;2022-09-17T05:42:12;1.53;;;0.70;;
13319;SDS011;59599;47.608;12.190;2022-09-17T05:44:38;0.80;;;0.70;;
13319;SDS011;59599;47.608;12.190;2022-09-17T05:47:04;2.00;;;0.80;;
13319;SDS011;59599;47.608;12.190;2022-09-17T05:49:29;0.93;;;0.73;;
13319;SDS011;59599;47.608;12.190;2022-09-17T05:51:55;0.63;;;0.50;;
13319;SDS011;59599;47.608;12.190;2022-09-17T05:54:21;0.40;;;0.40;;
13319;SDS011;59599;47.608;12.190;2022-09-17T05:56:47;0.70;;;0.50;;
13319;SDS011;59599;47.608;12.190;2022-09-17T05:59:16;0.93;;;0.70;;
13319;SDS011;59599;47.608;12.190;2022-09-17T06:01:42;0.50;;;0.50;;
13319;SDS011;59599;47.608;12.190;2022-09-17T06:04:09;0.37;;;0.37;;
13319;SDS011;59599;47.608;12.190;2022-09-17T06:06:35;0.77;;;0.40;;
13319;SDS011;59599;47.608;12.190;2022-09-17T06:09:02;2.97;;;1.30;;
13319;SDS011;59599;47.608;12.190;2022-09-17T06:11:31;2.23;;;1.60;;
13319;SDS011;59599;47.608;12.190;2022-09-17T06:13:57;2.13;;;1.50;;
13319;SDS011;59599;47.608;12.190;2022-09-17T06:16:23;1.30;;;1.10;;
13319;SDS011;59599;47.608;12.190;2022-09-17T06:18:49;1.10;;;0.90;;
13319;SDS011;59599;47.608;12.190;2022-09-17T06:21:17;1.07;;;0.77;;
13319;SDS011;59599;47.608;12.190;2022-09-17T06:23:43;1.27;;;0.77;;
13319;SDS011;59599;47.608;12.190;2022-09-17T06:26:09;1.30;;;0.70;;
13319;SDS011;59599;47.608;12.190;2022-09-17T06:28:36;0.90;;;0.90;;
13319;SDS011;59599;47.608;12.190;2022-09-17T06:31:03;1.10;;;1.00;;
13319;SDS011;59599;47.608;12.190;2022-09-17T06:33:30;2.97;;;1.17;;
13319;SDS011;59599;47.608;12.190;2022-09-17T06:35:56;2.37;;;1.47;;
13319;SDS011;59599;47.608;12.190;2022-09-17T06:38:24;2.77;;;1.30;;
13319;SDS011;59599;47.608;12.190;2022-09-17T06:40:53;2.23;;;1.40;;
13319;SDS011;59599;47.608;12.190;2022-09-17T06:43:19;4.37;;;1.27;;
13319;SDS011;59599;47.608;12.190;2022-09-17T06:45:58;1.07;;;0.90;;
13319;SDS011;59599;47.608;12.190;2022-09-17T06:48:25;1.23;;;0.50;;
13319;SDS011;59599;47.608;12.190;2022-09-17T06:50:51;0.70;;;0.50;;
13319;SDS011;59599;47.608;12.190;2022-09-17T06:53:18;0.60;;;0.60;;
13319;SDS011;59599;47.608;12.190;2022-09-17T06:55:44;0.50;;;0.50;;
13319;SDS011;59599;47.608;12.190;2022-09-17T06:58:10;1.70;;;0.60;;
13319;SDS011;59599;47.608;12.190;2022-09-17T07:00:36;1.00;;;0.90;;
13319;SDS011;59599;47.608;12.190;2022-09-17T07:03:02;0.70;;;0.70;;
13319;SDS011;59599;47.608;12.190;2022-09-17T07:05:28;1.03;;;0.93;;
13319;SDS011;59599;47.608;12.190;2022-09-17T07:07:56;0.90;;;0.50;;
13319;SDS011;59599;47.608;12.190;2022-09-17T07:10:21;0.90;;;0.60;;
13319;SDS011;59599;47.608;12.190;2022-09-17T07:12:47;0.40;;;0.40;;
13319;SDS011;59599;47.608;12.190;2022-09-17T07:15:13;0.50;;;0.43;;
13319;SDS011;59599;47.608;12.190;2022-09-17T07:17:40;1.17;;;0.83;;
13319;SDS011;59599;47.608;12.190;2022-09-17T07:20:07;1.33;;;0.80;;
13319;SDS011;59599;47.608;12.190;2022-09-17T07:22:33;1.90;;;0.97;;
13319;SDS011;59599;47.608;12.190;2022-09-17T07:24:59;6.10;;;1.40;;
13319;SDS011;59599;47.608;12.190;2022-09-17T07:27:28;2.20;;;1.30;;
13319;SDS011;59599;47.608;12.190;2022-09-17T07:29:54;3.17;;;1.10;;
13319;SDS011;59599;47.608;12.190;2022-09-17T07:32:20;11.83;;;1.10;;
13319;SDS011;59599;47.608;12.190;2022-09-17T07:34:46;5.30;;;1.37;;
13319;SDS011;59599;47.608;12.190;2022-09-17T07:37:13;2.93;;;0.90;;
13319;SDS011;59599;47.608;12.190;2022-09-17T07:39:39;4.00;;;1.27;;
13319;SDS011;59599;47.608;12.190;2022-09-17T07:42:06;4.47;;;0.80;;
13319;SDS011;59599;47.608;12.190;2022-09-17T07:44:32;1.30;;;0.70;;
13319;SDS011;59599;47.608;12.190;2022-09-17T07:46:58;0.80;;;0.70;;
13319;SDS011;59599;47.608;12.190;2022-09-17T07:49:24;1.47;;;0.60;;
13319;SDS011;59599;47.608;12.190;2022-09-17T07:51:50;0.60;;;0.60;;
13319;SDS011;59599;47.608;12.190;2022-09-17T07:54:16;10.53;;;1.33;;
13319;SDS011;59599;47.608;12.190;2022-09-17T07:56:42;7.87;;;1.30;;
13319;SDS011;59599;47.608;12.190;2022-09-17T07:59:09;3.93;;;1.17;;
13319;SDS011;59599;47.608;12.190;2022-09-17T08:01:34;2.57;;;0.83;;
13319;SDS011;59599;47.608;12.190;2022-09-17T08:04:00;6.30;;;1.20;;
13319;SDS011;59599;47.608;12.190;2022-09-17T08:06:27;3.17;;;0.80;;
13319;SDS011;59599;47.608;12.190;2022-09-17T08:08:57;2.93;;;1.30;;
13319;SDS011;59599;47.608;12.190;2022-09-17T08:11:27;1.37;;;0.80;;
13319;SDS011;59599;47.608;12.190;2022-09-17T08:13:54;1.53;;;0.80;;
13319;SDS011;59599;47.608;12.190;2022-09-17T08:16:20;1.30;;;1.00;;
13319;SDS011;59599;47.608;12.190;2022-09-17T08:18:47;1.97;;;0.90;;
13319;SDS011;59599;47.608;12.190;2022-09-17T08:21:17;0.63;;;0.63;;
13319;SDS011;59599;47.608;12.190;2022-09-17T08:23:43;3.87;;;1.10;;
13319;SDS011;59599;47.608;12.190;2022-09-17T08:26:11;1.10;;;1.00;;
13319;SDS011;59599;47.608;12.190;2022-09-17T08:28:37;1.40;;;1.00;;
13319;SDS011;59599;47.608;12.190;2022-09-17T08:31:04;1.80;;;1.07;;
13319;SDS011;59599;47.608;12.190;2022-09-17T08:33:31;1.80;;;1.10;;
13319;SDS011;59599;47.608;12.190;2022-09-17T08:35:58;2.77;;;1.17;;
13319;SDS011;59599;47.608;12.190;2022-09-17T08:38:33;3.50;;;1.43;;
13319;SDS011;59599;47.608;12.190;2022-09-17T08:43:27;1.20;;;1.10;;
13319;SDS011;59599;47.608;12.190;2022-09-17T08:45:53;2.13;;;0.90;;
13319;SDS011;59599;47.608;12.190;2022-09-17T08:48:20;1.20;;;0.90;;
13319;SDS011;59599;47.608;12.190;2022-09-17T08:50:46;2.60;;;1.40;;
13319;SDS011;59599;47.608;12.190;2022-09-17T08:55:45;1.00;;;0.83;;
13319;SDS011;59599;47.608;12.190;2022-09-17T09:06:14;0.77;;;0.77;;
13319;SDS011;59599;47.608;12.190;2022-09-17T09:08:41;0.77;;;0.67;;
13319;SDS011;59599;47.608;12.190;2022-09-17T09:11:12;2.37;;;0.83;;
13319;SDS011;59599;47.608;12.190;2022-09-17T09:13:46;0.80;;;0.70;;
13319;SDS011;59599;47.608;12.190;2022-09-17T09:16:21;1.37;;;0.80;;
13319;SDS011;59599;47.608;12.190;2022-09-17T09:18:55;1.43;;;0.80;;
13319;SDS011;59599;47.608;12.190;2022-09-17T09:21:25;1.73;;;0.80;;
13319;SDS011;59599;47.608;12.190;2022-09-17T09:23:55;1.07;;;1.00;;
13319;SDS011;59599;47.608;12.190;2022-09-17T09:34:11;2.60;;;0.53;;
13319;SDS011;59599;47.608;12.190;2022-09-17T09:36:38;1.60;;;0.83;;
13319;SDS011;59599;47.608;12.190;2022-09-17T09:39:21;2.07;;;0.93;;
13319;SDS011;59599;47.608;12.190;2022-09-17T09:41:53;2.33;;;1.20;;
13319;SDS011;59599;47.608;12.190;2022-09-17T09:44:22;3.60;;;1.00;;
13319;SDS011;59599;47.608;12.190;2022-09-17T09:57:38;0.70;;;0.70;;
13319;SDS011;59599;47.608;12.190;2022-09-17T10:02:51;1.77;;;1.10;;
13319;SDS011;59599;47.608;12.190;2022-09-17T10:05:18;1.40;;;1.10;;
13319;SDS011;59599;47.608;12.190;2022-09-17T10:07:44;4.03;;;1.20;;
13319;SDS011;59599;47.608;12.190;2022-09-17T10:10:10;4.93;;;1.60;;
13319;SDS011;59599;47.608;12.190;2022-09-17T10:12:36;2.03;;;1.10;;
13319;SDS011;59599;47.608;12.190;2022-09-17T10:15:22;6.87;;;1.47;;
13319;SDS011;59599;47.608;12.190;2022-09-17T10:18:09;2.23;;;1.00;;
13319;SDS011;59599;47.608;12.190;2022-09-17T10:20:47;1.73;;;1.30;;
13319;SDS011;59599;47.608;12.190;2022-09-17T10:23:13;2.80;;;1.20;;
13319;SDS011;59599;47.608;12.190;2022-09-17T10:25:40;2.10;;;1.33;;
13319;SDS011;59599;47.608;12.190;2022-09-17T10:28:28;1.83;;;0.93;;
13319;SDS011;59599;47.608;12.190;2022-09-17T10:30:58;2.57;;;1.03;;
13319;SDS011;59599;47.608;12.190;2022-09-17T10:33:26;7.07;;;1.20;;
13319;SDS011;59599;47.608;12.190;2022-09-17T10:36:11;3.83;;;1.20;;
13319;SDS011;59599;47.608;12.190;2022-09-17T10:38:39;2.40;;;1.10;;
13319;SDS011;59599;47.608;12.190;2022-09-17T10:41:09;2.63;;;1.03;;
13319;SDS011;59599;47.608;12.190;2022-09-17T10:43:36;4.83;;;1.40;;
13319;SDS011;59599;47.608;12.190;2022-09-17T10:46:01;2.03;;;1.23;;
13319;SDS011;59599;47.608;12.190;2022-09-17T10:48:32;2.20;;;1.20;;
13319;SDS011;59599;47.608;12.190;2022-09-17T10:51:01;1.67;;;1.03;;
13319;SDS011;59599;47.608;12.190;2022-09-17T10:53:27;1.37;;;0.67;;
13319;SDS011;59599;47.608;12.190;2022-09-17T10:56:14;1.70;;;1.00;;
13319;SDS011;59599;47.608;12.190;2022-09-17T11:10:09;1.10;;;0.97;;
13319;SDS011;59599;47.608;12.190;2022-09-17T11:12:11;1.00;;;0.87;;
13319;SDS011;59599;47.608;12.190;2022-09-17T11:19:47;1.10;;;0.90;;
13319;SDS011;59599;47.608;12.190;2022-09-17T11:28:00;3.77;;;1.30;;
13319;SDS011;59599;47.608;12.190;2022-09-17T11:30:32;1.50;;;1.07;;
13319;SDS011;59599;47.608;12.190;2022-09-17T11:35:48;3.50;;;0.90;;
13319;SDS011;59599;47.608;12.190;2022-09-17T11:38:24;1.70;;;0.90;;
13319;SDS011;59599;47.608;12.190;2022-09-17T11:41:05;1.90;;;1.00;;
13319;SDS011;59599;47.608;12.190;2022-09-17T11:43:39;1.43;;;0.80;;
13319;SDS011;59599;47.608;12.190;2022-09-17T11:46:54;1.57;;;0.70;;
13319;SDS011;59599;47.608;12.190;2022-09-17T11:49:06;1.60;;;0.80;;
13319;SDS011;59599;47.608;12.190;2022-09-17T11:51:37;1.33;;;1.03;;
13319;SDS011;59599;47.608;12.190;2022-09-17T11:56:44;3.73;;;1.00;;
13319;SDS011;59599;47.608;12.190;2022-09-17T11:59:34;3.30;;;1.60;;
13319;SDS011;59599;47.608;12.190;2022-09-17T12:02:13;1.73;;;0.90;;
13319;SDS011;59599;47.608;12.190;2022-09-17T12:07:29;3.10;;;0.90;;
13319;SDS011;59599;47.608;12.190;2022-09-17T12:12:48;2.47;;;0.97;;
13319;SDS011;59599;47.608;12.190;2022-09-17T12:15:21;2.47;;;1.10;;
13319;SDS011;59599;47.608;12.190;2022-09-17T12:17:53;3.07;;;1.20;;
13319;SDS011;59599;47.608;12.190;2022-09-17T12:20:39;1.17;;;0.93;;
13319;SDS011;59599;47.608;12.190;2022-09-17T12:23:10;1.50;;;0.90;;
13319;SDS011;59599;47.608;12.190;2022-09-17T12:25:42;1.30;;;0.90;;
13319;SDS011;59599;47.608;12.190;2022-09-17T12:28:18;1.83;;;1.07;;
13319;SDS011;59599;47.608;12.190;2022-09-17T12:30:55;2.27;;;1.50;;
13319;SDS011;59599;47.608;12.190;2022-09-17T12:41:24;1.33;;;0.90;;
13319;SDS011;59599;47.608;12.190;2022-09-17T12:44:17;1.93;;;1.00;;
13319;SDS011;59599;47.608;12.190;2022-09-17T12:52:15;1.40;;;0.90;;
13319;SDS011;59599;47.608;12.190;2022-09-17T13:00:16;2.80;;;1.30;;
13319;SDS011;59599;47.608;12.190;2022-09-17T13:05:19;2.87;;;1.10;;
13319;SDS011;59599;47.608;12.190;2022-09-17T13:07:58;2.90;;;1.20;;
13319;SDS011;59599;47.608;12.190;2022-09-17T13:21:58;4.73;;;1.30;;
13319;SDS011;59599;47.608;12.190;2022-09-17T13:24:30;4.53;;;1.60;;
13319;SDS011;59599;47.608;12.190;2022-09-17T13:26:57;2.83;;;1.20;;
13319;SDS011;59599;47.608;12.190;2022-09-17T13:32:09;2.00;;;1.40;;
13319;SDS011;59599;47.608;12.190;2022-09-17T13:37:40;1.47;;;0.70;;
13319;SDS011;59599;47.608;12.190;2022-09-17T13:40:19;0.90;;;0.73;;
13319;SDS011;59599;47.608;12.190;2022-09-17T13:42:49;1.40;;;0.83;;
13319;SDS011;59599;47.608;12.190;2022-09-17T13:45:19;2.10;;;1.10;;
13319;SDS011;59599;47.608;12.190;2022-09-17T13:48:06;3.93;;;1.20;;
13319;SDS011;59599;47.608;12.190;2022-09-17T13:50:37;2.23;;;0.90;;
13319;SDS011;59599;47.608;12.190;2022-09-17T13:55:37;1.30;;;0.80;;
13319;SDS011;59599;47.608;12.190;2022-09-17T14:08:45;3.17;;;1.90;;
13319;SDS011;59599;47.608;12.190;2022-09-17T14:13:48;1.40;;;1.20;;
13319;SDS011;59599;47.608;12.190;2022-09-17T14:17:00;3.77;;;1.83;;
13319;SDS011;59599;47.608;12.190;2022-09-17T14:21:40;2.87;;;2.03;;
13319;SDS011;59599;47.608;12.190;2022-09-17T14:24:21;10.60;;;7.30;;
13319;SDS011;59599;47.608;12.190;2022-09-17T14:32:32;5.23;;;1.70;;
13319;SDS011;59599;47.608;12.190;2022-09-17T14:35:12;3.93;;;1.83;;
13319;SDS011;59599;47.608;12.190;2022-09-17T14:37:38;1.97;;;1.10;;
13319;SDS011;59599;47.608;12.190;2022-09-17T14:40:16;3.20;;;2.80;;
13319;SDS011;59599;47.608;12.190;2022-09-17T14:42:43;3.20;;;1.50;;
13319;SDS011;59599;47.608;12.190;2022-09-17T14:45:19;2.90;;;1.20;;
13319;SDS011;59599;47.608;12.190;2022-09-17T14:47:45;1.33;;;0.97;;
13319;SDS011;59599;47.608;12.190;2022-09-17T14:52:51;2.20;;;1.30;;
13319;SDS011;59599;47.608;12.190;2022-09-17T14:55:24;2.00;;;1.40;;
13319;SDS011;59599;47.608;12.190;2022-09-17T14:57:55;1.83;;;1.40;;
13319;SDS011;59599;47.608;12.190;2022-09-17T15:00:25;1.53;;;1.10;;
13319;SDS011;59599;47.608;12.190;2022-09-17T15:02:55;11.10;;;5.57;;
13319;SDS011;59599;47.608;12.190;2022-09-17T15:10:45;2.07;;;1.87;;
13319;SDS011;59599;47.608;12.190;2022-09-17T15:13:24;4.17;;;2.73;;
13319;SDS011;59599;47.608;12.190;2022-09-17T15:16:00;4.00;;;2.90;;
13319;SDS011;59599;47.608;12.190;2022-09-17T15:18:47;2.80;;;1.60;;
13319;SDS011;59599;47.608;12.190;2022-09-17T15:21:18;4.23;;;1.60;;
13319;SDS011;59599;47.608;12.190;2022-09-17T15:24:12;1.77;;;0.90;;
13319;SDS011;59599;47.608;12.190;2022-09-17T15:26:41;1.00;;;0.90;;
13319;SDS011;59599;47.608;12.190;2022-09-17T15:29:11;0.90;;;0.80;;
13319;SDS011;59599;47.608;12.190;2022-09-17T15:31:38;1.33;;;0.83;;
13319;SDS011;59599;47.608;12.190;2022-09-17T15:34:04;1.13;;;1.03;;
13319;SDS011;59599;47.608;12.190;2022-09-17T15:36:30;1.90;;;1.23;;
13319;SDS011;59599;47.608;12.190;2022-09-17T15:38:56;3.17;;;1.20;;
13319;SDS011;59599;47.608;12.190;2022-09-17T15:41:24;4.90;;;2.20;;
13319;SDS011;59599;47.608;12.190;2022-09-17T15:43:51;7.70;;;5.80;;
13319;SDS011;59599;47.608;12.190;2022-09-17T15:46:27;7.40;;;5.20;;
13319;SDS011;59599;47.608;12.190;2022-09-17T15:48:54;6.23;;;4.63;;
13319;SDS011;59599;47.608;12.190;2022-09-17T15:51:33;8.63;;;4.93;;
13319;SDS011;59599;47.608;12.190;2022-09-17T15:54:00;2.67;;;1.93;;
13319;SDS011;59599;47.608;12.190;2022-09-17T15:56:35;3.03;;;1.50;;
13319;SDS011;59599;47.608;12.190;2022-09-17T15:59:03;2.63;;;1.30;;
13319;SDS011;59599;47.608;12.190;2022-09-17T16:04:06;2.40;;;1.40;;
13319;SDS011;59599;47.608;12.190;2022-09-17T16:08:59;3.00;;;2.30;;
13319;SDS011;59599;47.608;12.190;2022-09-17T16:11:29;5.43;;;3.13;;
13319;SDS011;59599;47.608;12.190;2022-09-17T16:13:55;6.77;;;4.67;;
13319;SDS011;59599;47.608;12.190;2022-09-17T16:16:22;7.60;;;5.17;;
13319;SDS011;59599;47.608;12.190;2022-09-17T16:18:48;4.90;;;3.20;;
13319;SDS011;59599;47.608;12.190;2022-09-17T16:21:15;2.13;;;1.37;;
13319;SDS011;59599;47.608;12.190;2022-09-17T16:23:41;1.97;;;1.63;;
13319;SDS011;59599;47.608;12.190;2022-09-17T16:26:50;2.53;;;2.10;;
13319;SDS011;59599;47.608;12.190;2022-09-17T16:29:06;2.00;;;1.80;;
13319;SDS011;59599;47.608;12.190;2022-09-17T16:31:35;3.03;;;1.83;;
13319;SDS011;59599;47.608;12.190;2022-09-17T16:34:01;3.97;;;2.80;;
13319;SDS011;59599;47.608;12.190;2022-09-17T16:36:27;4.77;;;3.23;;
13319;SDS011;59599;47.608;12.190;2022-09-17T16:38:55;2.93;;;2.30;;
13319;SDS011;59599;47.608;12.190;2022-09-17T16:41:21;2.63;;;1.00;;
13319;SDS011;59599;47.608;12.190;2022-09-17T16:43:47;1.40;;;0.80;;
13319;SDS011;59599;47.608;12.190;2022-09-17T16:46:13;0.80;;;0.80;;
13319;SDS011;59599;47.608;12.190;2022-09-17T16:48:39;0.93;;;0.70;;
13319;SDS011;59599;47.608;12.190;2022-09-17T16:51:08;2.30;;;1.00;;
13319;SDS011;59599;47.608;12.190;2022-09-17T16:53:34;1.17;;;0.83;;
13319;SDS011;59599;47.608;12.190;2022-09-17T16:56:00;2.53;;;1.83;;
13319;SDS011;59599;47.608;12.190;2022-09-17T16:58:26;3.37;;;2.30;;
13319;SDS011;59599;47.608;12.190;2022-09-17T17:00:52;3.80;;;2.20;;
13319;SDS011;59599;47.608;12.190;2022-09-17T17:03:18;5.90;;;3.90;;
13319;SDS011;59599;47.608;12.190;2022-09-17T17:05:44;5.73;;;2.90;;
13319;SDS011;59599;47.608;12.190;2022-09-17T17:08:09;5.03;;;2.60;;
13319;SDS011;59599;47.608;12.190;2022-09-17T17:10:36;3.23;;;2.50;;
13319;SDS011;59599;47.608;12.190;2022-09-17T17:13:03;6.93;;;4.03;;
13319;SDS011;59599;47.608;12.190;2022-09-17T17:15:30;4.57;;;2.77;;
13319;SDS011;59599;47.608;12.190;2022-09-17T17:17:56;3.60;;;2.83;;
13319;SDS011;59599;47.608;12.190;2022-09-17T17:20:22;4.23;;;2.80;;
13319;SDS011;59599;47.608;12.190;2022-09-17T17:22:48;5.40;;;2.20;;
13319;SDS011;59599;47.608;12.190;2022-09-17T17:25:16;4.37;;;2.73;;
13319;SDS011;59599;47.608;12.190;2022-09-17T17:27:42;3.07;;;1.80;;
13319;SDS011;59599;47.608;12.190;2022-09-17T17:30:08;2.47;;;1.90;;
13319;SDS011;59599;47.608;12.190;2022-09-17T17:32:40;3.03;;;1.90;;
13319;SDS011;59599;47.608;12.190;2022-09-17T17:35:06;2.53;;;0.80;;
13319;SDS011;59599;47.608;12.190;2022-09-17T17:37:32;2.13;;;1.50;;